Sunday, July 22, 2018, 11:55 PM GMT
Back to Local

CWQO, Ile Bicquette, Que.

Location: , , Canada Lat: 48.416
Local Time: 11:55 PM GMT (23:55 GMT) Lon: -68.893
Time Zone: GMT Elev: 22 ft

Show me the last for .
Show Coded

Time T Td Feel RH Dir Speed Gust Alt SLP Vis Weather Sky Remarks
2018-07-22 23:00 51 49 - 95 350° 8 - - - 0 None
2018-07-22 22:00 51 50 - 96 30° 5 - - - 0 None
2018-07-22 21:00 56 53 - 90 60° 8 - - - 0 None
2018-07-22 20:00 55 52 - 89 40° 9 - - - 0 None
2018-07-22 19:00 57 52 - 83 30° 7 - - - 0 None
2018-07-22 18:00 58 54 - 86 350° 5 - - - 0 None
2018-07-22 17:00 54 51 - 89 10° 6 - - - 0 None
2018-07-22 16:00 55 51 - 88 30° 7 - - - 0 None
2018-07-22 15:00 57 51 - 82 50° 7 - - - 0 None
2018-07-22 14:00 55 49 - 79 360° 3 - - - 0 None
2018-07-22 13:00 55 52 - 88 350° 5 - - - 0 None
2018-07-22 12:00 53 52 - 94 320° 3 - - - 0 None
2018-07-22 11:00 52 51 - 96 290° 3 - - - 0 None
2018-07-22 10:00 51 50 - 96 330° 2 - - - 0 None
2018-07-22 09:00 49 49 48 97 290° 3 - - - 0 None
2018-07-22 08:00 51 50 - 96 250° 7 - - - 0 None
2018-07-22 07:00 51 49 - 94 230° 5 - - - 0 None
2018-07-22 06:00 53 51 - 93 340° 5 - - - 0 None
2018-07-22 05:00 54 53 - 93 20° 6 - - - 0 None
2018-07-22 04:00 54 53 - 94 30° 8 - - - 0 None
2018-07-22 03:00 53 52 - 94 30° 9 - - - 0 None
2018-07-22 02:00 53 51 - 92 10° 9 - - - 0 None
2018-07-22 01:00 54 52 - 91 30° 7 - - - 0 None
2018-07-22 00:00 57 51 - 80 40° 7 - - - 0 None

Support USWX by starting your Amazon purchase here.